METAR Data
IDs: Format: Raw Decoded Include TAF

Data at: 1453 UTC 18 Aug 2019

PAHX 181256Z AUTO 02006KT 10SM CLR 07/04 A3045 RMK AO2 SLP311 T00720044
PAHX 181156Z AUTO 02005KT 10SM CLR 07/05 A3046 RMK AO2 SLP315 T00720050 10128 20072 58006
PAHX 181056Z AUTO 02006KT 10SM CLR 08/05 A3047 RMK AO2 SLP318 T00780050
PAHX 180956Z AUTO 04006KT 10SM CLR 08/06 A3047 RMK AO2 SLP318 T00830056
PAHX 180856Z AUTO 03005KT 10SM CLR 09/06 A3048 RMK AO2 SLP321 T00890061 58003
PAHX 180756Z AUTO 04004KT 10SM CLR 10/07 A3049 RMK AO2 SLP324 T01000067 401780050
PAHX 180656Z AUTO 03005KT 10SM CLR 11/07 A3049 RMK AO2 SLP324 T01060067
PAHX 180556Z AUTO 03006KT 10SM CLR 13/08 A3049 RMK AO2 SLP325 T01280078 10178 20128 58003
PAHX 180456Z AUTO 03008KT 10SM CLR 16/08 A3050 RMK AO2 SLP327 T01560078
PAHX 180356Z AUTO 04009KT 10SM CLR 17/08 A3049 RMK AO2 SLP326 T01670078
PAHX 180256Z AUTO 03011G16KT 10SM CLR 18/08 A3050 RMK AO2 SLP328 T01780078 56008
PAHX 180156Z AUTO 04012G16KT 10SM CLR 17/07 A3050 RMK AO2 SLP329 T01720072
PAHX 180056Z AUTO 03011KT 10SM CLR 17/07 A3052 RMK AO2 SLP334 T01720072
PAHX 172356Z AUTO 02012G19KT 10SM CLR 17/08 A3052 RMK AO2 SLP337 T01670078 10167 20094 58010
PAHX 172256Z AUTO 04011G16KT 10SM CLR 16/08 A3054 RMK AO2 SLP343 T01610078
PAHX 172156Z AUTO 04009KT 10SM CLR 15/07 A3055 RMK AO2 SLP346 T01500072
PAHX 171856Z AUTO 05008KT 10SM CLR 11/06 A3055 RMK AO2 SLP346 T01110061
PAHX 171656Z AUTO 35003KT 10SM CLR 08/07 A3054 RMK AO2 SLP342 T00780067
PAHX 171556Z AUTO 36005KT 10SM CLR 06/05 A3054 RMK AO2 SLP343 T00610050
PAHX 171456Z AUTO 01005KT 10SM CLR 06/05 A3053 RMK AO2 SLP339 T00610050 51006
PAHX 171356Z AUTO 35005KT 10SM CLR 06/06 A3053 RMK AO2 SLP338 T00610056
PAHX 171256Z AUTO 01004KT 10SM CLR 07/06 A3053 RMK AO2 SLP338 T00670056
PAHX 171156Z AUTO 03005KT 10SM CLR 08/06 A3051 RMK AO2 SLP332 T00780061 10122 20078 51008
PAHX 171056Z AUTO 02005KT 10SM CLR 09/07 A3051 RMK AO2 SLP331 T00890067
PAHX 170956Z AUTO 36004KT 10SM CLR 10/08 A3050 RMK AO2 SLP329 T01000083
PAHX 170856Z AUTO 00000KT 10SM CLR 11/09 A3049 RMK AO2 SLP325 T01060089 52016
PAHX 170756Z AUTO 34004KT 10SM CLR 11/09 A3047 RMK AO2 SLP319 T01110089 401500111
PAHX 170656Z AUTO 35004KT 10SM CLR 12/09 A3046 RMK AO2 SLP315 T01170089
PAHX 170556Z AUTO 00000KT 10SM FEW120 12/09 A3044 RMK AO2 SLP309 60000 T01220089 10150 20122 53003
PAHX 170456Z AUTO 32004KT 10SM CLR 13/09 A3044 RMK AO2 SLP307 T01330094
PAHX 170356Z AUTO 31005KT 10SM FEW028 OVC085 14/11 A3044 RMK AO2 SLP308 T01390111
PAHX 170315Z AUTO 34005KT 10SM SCT021 BKN047 OVC080 14/11 A3044 RMK AO2
PAHX 170256Z AUTO 33005KT 10SM BKN019 BKN028 OVC049 14/12 A3044 RMK AO2 RAB24E43 SLP307 P0000 60000 T01390117 51006